createdAt,value
2023-01-07T00:00:20.930Z,7.30
2023-01-07T00:01:20.830Z,7.29
2023-01-07T00:02:20.884Z,7.30
2023-01-07T00:03:20.888Z,7.29
2023-01-07T00:04:20.789Z,7.26
2023-01-07T00:05:20.790Z,7.29
2023-01-07T00:06:20.778Z,7.26
2023-01-07T00:07:20.789Z,7.26
2023-01-07T00:08:20.753Z,7.24
2023-01-07T00:09:20.735Z,7.24
2023-01-07T00:10:20.744Z,7.21
2023-01-07T00:11:20.715Z,7.21
2023-01-07T00:12:20.756Z,7.24
2023-01-07T00:13:20.694Z,7.23
2023-01-07T00:14:20.701Z,7.21
2023-01-07T00:15:20.710Z,7.21
2023-01-07T00:16:20.684Z,7.19
2023-01-07T00:17:20.731Z,7.23
2023-01-07T00:18:20.650Z,7.23
2023-01-07T00:19:20.634Z,7.21
2023-01-07T00:20:20.629Z,7.23
2023-01-07T00:21:20.616Z,7.19
2023-01-07T00:22:20.657Z,7.21
2023-01-07T00:23:20.608Z,7.19
2023-01-07T00:24:20.640Z,7.16
2023-01-07T00:25:20.578Z,7.14
2023-01-07T00:26:20.617Z,7.14
2023-01-07T00:27:20.559Z,7.11
2023-01-07T00:28:20.558Z,7.11
2023-01-07T00:29:20.529Z,7.09
2023-01-07T00:30:20.537Z,7.11
2023-01-07T00:31:20.534Z,7.09
2023-01-07T00:32:20.523Z,7.05
2023-01-07T00:33:20.486Z,7.08
2023-01-07T00:34:20.481Z,7.07
2023-01-07T00:35:20.477Z,7.05
2023-01-07T00:36:20.481Z,7.05
2023-01-07T00:37:20.447Z,7.07
2023-01-07T00:38:20.457Z,7.07
2023-01-07T00:39:20.454Z,7.05
2023-01-07T00:40:20.421Z,7.08
2023-01-07T00:41:20.432Z,7.05
2023-01-07T00:42:20.409Z,7.01
2023-01-07T00:43:20.392Z,7.01
2023-01-07T00:44:20.387Z,7.01
2023-01-07T00:45:20.366Z,7.01
2023-01-07T00:46:20.380Z,7.01
2023-01-07T00:47:20.394Z,7.05
2023-01-07T00:48:20.337Z,7.04
2023-01-07T00:49:21.286Z,7.01
2023-01-07T00:50:20.395Z,7.00
2023-01-07T00:51:20.319Z,7.00
2023-01-07T00:52:20.343Z,7.00
2023-01-07T00:53:20.289Z,6.99
2023-01-07T00:54:20.288Z,6.99
2023-01-07T00:55:20.279Z,6.97
2023-01-07T00:56:20.309Z,6.96
2023-01-07T00:57:20.254Z,6.97
2023-01-07T00:58:20.257Z,6.99
2023-01-07T00:59:20.242Z,6.96
2023-01-07T01:00:20.219Z,6.93
2023-01-07T01:01:20.400Z,6.93
2023-01-07T01:02:20.253Z,6.90
2023-01-07T01:03:20.200Z,6.89
2023-01-07T01:04:20.181Z,6.87
2023-01-07T01:05:20.178Z,6.86
2023-01-07T01:06:20.195Z,6.87
2023-01-07T01:07:20.141Z,6.86
2023-01-07T01:08:20.134Z,6.82
2023-01-07T01:09:20.144Z,6.81
2023-01-07T01:10:20.116Z,6.81
2023-01-07T01:11:20.115Z,6.81
2023-01-07T01:12:20.102Z,6.78
2023-01-07T01:13:20.091Z,6.78
2023-01-07T01:14:20.086Z,6.78
2023-01-07T01:15:20.069Z,6.76
2023-01-07T01:16:20.148Z,6.76
2023-01-07T01:17:20.069Z,6.75
2023-01-07T01:18:20.036Z,6.78
2023-01-07T01:19:20.043Z,6.78
2023-01-07T01:20:20.033Z,6.79
2023-01-07T01:21:20.036Z,6.78
2023-01-07T01:22:19.993Z,6.78
2023-01-07T01:23:19.989Z,6.78
2023-01-07T01:24:19.991Z,6.78
2023-01-07T01:25:19.961Z,6.79
2023-01-07T01:26:19.988Z,6.78
2023-01-07T01:27:19.980Z,6.83
2023-01-07T01:28:19.955Z,6.79
2023-01-07T01:29:19.907Z,6.79
2023-01-07T01:30:19.916Z,6.78
2023-01-07T01:31:19.984Z,6.78
2023-01-07T01:32:19.899Z,6.79
2023-01-07T01:33:19.875Z,6.78
2023-01-07T01:34:19.874Z,6.78
2023-01-07T01:35:19.858Z,6.78
2023-01-07T01:36:19.873Z,6.76
2023-01-07T01:37:19.837Z,6.76
2023-01-07T01:38:19.850Z,6.75
2023-01-07T01:39:19.816Z,6.76
2023-01-07T01:40:19.811Z,6.75
2023-01-07T01:41:19.813Z,6.75
2023-01-07T01:42:19.783Z,6.73
2023-01-07T01:43:19.776Z,6.75
2023-01-07T01:44:19.785Z,6.73
2023-01-07T01:45:19.787Z,6.76
2023-01-07T01:46:19.818Z,6.76
2023-01-07T01:47:19.751Z,6.76
2023-01-07T01:48:19.767Z,6.76
2023-01-07T01:49:19.735Z,6.76
2023-01-07T01:50:19.704Z,6.76
2023-01-07T01:51:19.724Z,6.75
2023-01-07T01:52:19.682Z,6.75
2023-01-07T01:53:19.669Z,6.73
2023-01-07T01:54:19.703Z,6.73
2023-01-07T01:55:19.667Z,6.72
2023-01-07T01:56:19.658Z,6.71
2023-01-07T01:57:19.630Z,6.71
2023-01-07T01:58:19.626Z,6.71
2023-01-07T01:59:19.610Z,6.71
2023-01-07T02:00:19.629Z,6.73
2023-01-07T02:01:19.701Z,6.71
2023-01-07T02:02:19.610Z,6.69
2023-01-07T02:03:19.583Z,6.68
2023-01-07T02:04:19.582Z,6.68
2023-01-07T02:05:19.585Z,6.63
2023-01-07T02:06:19.556Z,6.61
2023-01-07T02:07:19.551Z,6.61
2023-01-07T02:08:19.530Z,6.57
2023-01-07T02:09:19.542Z,6.57
2023-01-07T02:10:19.505Z,6.55
2023-01-07T02:11:19.501Z,6.57
2023-01-07T02:12:19.487Z,6.57
2023-01-07T02:13:19.539Z,6.54
2023-01-07T02:14:19.459Z,6.55
2023-01-07T02:15:19.471Z,6.55
2023-01-07T02:16:19.533Z,6.55
2023-01-07T02:17:19.429Z,6.55
2023-01-07T02:18:19.428Z,6.54
2023-01-07T02:19:19.410Z,6.60
2023-01-07T02:20:19.449Z,6.55
2023-01-07T02:21:19.392Z,6.54
2023-01-07T02:22:19.375Z,6.54
2023-01-07T02:23:19.431Z,6.54
2023-01-07T02:24:19.361Z,6.54
2023-01-07T02:25:19.345Z,6.54
2023-01-07T02:26:19.362Z,6.54
2023-01-07T02:27:21.016Z,6.55
2023-01-07T02:28:19.404Z,6.53
2023-01-07T02:29:19.295Z,6.55
2023-01-07T02:30:19.310Z,6.55
2023-01-07T02:31:19.355Z,6.57
2023-01-07T02:32:19.278Z,6.58
2023-01-07T02:33:19.272Z,6.55
2023-01-07T02:34:19.264Z,6.57
2023-01-07T02:35:19.256Z,6.54
2023-01-07T02:36:19.243Z,6.57
2023-01-07T02:37:19.241Z,6.54
2023-01-07T02:38:19.213Z,6.55
2023-01-07T02:39:19.251Z,6.53
2023-01-07T02:40:19.203Z,6.54
2023-01-07T02:41:19.193Z,6.51
2023-01-07T02:42:19.172Z,6.46
2023-01-07T02:43:19.147Z,6.50
2023-01-07T02:44:19.163Z,6.50
2023-01-07T02:45:19.145Z,6.50
2023-01-07T02:46:19.152Z,6.50
2023-01-07T02:47:19.139Z,6.50
2023-01-07T02:48:19.106Z,6.50
2023-01-07T02:49:19.094Z,6.48
2023-01-07T02:50:19.100Z,6.51
2023-01-07T02:51:19.097Z,6.51
2023-01-07T02:52:19.076Z,6.50
2023-01-07T02:53:19.049Z,6.48
2023-01-07T02:54:19.047Z,6.48
2023-01-07T02:55:19.026Z,6.46
2023-01-07T02:56:19.072Z,6.50
2023-01-07T02:57:19.018Z,6.50
2023-01-07T02:58:19.016Z,6.50
2023-01-07T02:59:18.995Z,6.50
2023-01-07T03:00:19.016Z,6.48
2023-01-07T03:01:19.085Z,6.46
2023-01-07T03:02:18.963Z,6.45
2023-01-07T03:03:18.958Z,6.50
2023-01-07T03:04:18.985Z,6.51
2023-01-07T03:05:18.946Z,6.46
2023-01-07T03:06:18.938Z,6.48
2023-01-07T03:07:18.930Z,6.46
2023-01-07T03:08:18.907Z,6.43
2023-01-07T03:09:18.908Z,6.40
2023-01-07T03:10:18.909Z,6.36
2023-01-07T03:11:18.871Z,6.38
2023-01-07T03:12:18.969Z,6.39
2023-01-07T03:13:18.864Z,6.36
2023-01-07T03:14:18.848Z,6.36
2023-01-07T03:15:18.834Z,6.39
2023-01-07T03:16:18.840Z,6.39
2023-01-07T03:17:18.869Z,6.40
2023-01-07T03:18:18.802Z,6.40
2023-01-07T03:19:18.801Z,6.39
2023-01-07T03:20:18.780Z,6.39
2023-01-07T03:21:18.809Z,6.39
2023-01-07T03:22:18.750Z,6.39
2023-01-07T03:23:18.920Z,6.39
2023-01-07T03:24:18.753Z,6.39
2023-01-07T03:25:18.728Z,6.42
2023-01-07T03:26:18.734Z,6.40
2023-01-07T03:27:18.720Z,6.42
2023-01-07T03:28:18.722Z,6.46
2023-01-07T03:29:18.688Z,6.48
2023-01-07T03:30:18.690Z,6.45
2023-01-07T03:31:18.716Z,6.50
2023-01-07T03:32:18.715Z,6.48
2023-01-07T03:33:18.649Z,6.45
2023-01-07T03:34:18.636Z,6.48
2023-01-07T03:35:18.626Z,6.46
2023-01-07T03:36:18.649Z,6.46
2023-01-07T03:37:18.595Z,6.50
2023-01-07T03:38:18.609Z,6.51
2023-01-07T03:39:18.579Z,6.53
2023-01-07T03:40:18.580Z,6.53
2023-01-07T03:41:18.581Z,6.54
2023-01-07T03:42:18.596Z,6.54
2023-01-07T03:43:18.554Z,6.57
2023-01-07T03:44:18.529Z,6.54
2023-01-07T03:45:18.536Z,6.54
2023-01-07T03:46:18.524Z,6.54
2023-01-07T03:47:18.493Z,6.54
2023-01-07T03:48:18.512Z,6.54
2023-01-07T03:49:18.488Z,6.51
2023-01-07T03:50:18.467Z,6.51
2023-01-07T03:51:18.480Z,6.53
2023-01-07T03:52:18.453Z,6.50
2023-01-07T03:53:18.432Z,6.53
2023-01-07T03:54:18.426Z,6.53
2023-01-07T03:55:18.427Z,6.54
2023-01-07T03:56:18.431Z,6.54
2023-01-07T03:57:18.395Z,6.55
2023-01-07T03:58:18.406Z,6.55
2023-01-07T03:59:18.386Z,6.57
2023-01-07T04:00:18.358Z,6.58
2023-01-07T04:01:18.612Z,6.60
2023-01-07T04:02:18.352Z,6.61
2023-01-07T04:03:18.349Z,6.63
2023-01-07T04:04:18.358Z,6.63
2023-01-07T04:05:18.335Z,6.64
2023-01-07T04:06:18.313Z,6.63
2023-01-07T04:07:18.294Z,6.61
2023-01-07T04:08:18.297Z,6.61
2023-01-07T04:09:18.278Z,6.60
2023-01-07T04:10:18.263Z,6.60
2023-01-07T04:11:18.285Z,6.60
2023-01-07T04:12:18.250Z,6.58
2023-01-07T04:13:18.238Z,6.57
2023-01-07T04:14:18.212Z,6.57
2023-01-07T04:15:18.220Z,6.55
2023-01-07T04:16:18.268Z,6.55
2023-01-07T04:17:18.195Z,6.54
2023-01-07T04:18:18.200Z,6.51
2023-01-07T04:19:18.186Z,6.50
2023-01-07T04:20:18.159Z,6.50
2023-01-07T04:21:18.220Z,6.46
2023-01-07T04:22:18.126Z,6.45
2023-01-07T04:23:18.150Z,6.43
2023-01-07T04:24:18.362Z,6.43
2023-01-07T04:25:18.105Z,6.39
2023-01-07T04:26:18.124Z,6.40
2023-01-07T04:27:18.093Z,6.38
2023-01-07T04:28:18.094Z,6.35
2023-01-07T04:29:20.783Z,6.36
2023-01-07T04:30:18.061Z,6.38
2023-01-07T04:31:18.071Z,6.39
2023-01-07T04:32:18.035Z,6.36
2023-01-07T04:33:18.024Z,6.40
2023-01-07T04:34:18.023Z,6.42
2023-01-07T04:35:18.016Z,6.39
2023-01-07T04:36:18.022Z,6.38
2023-01-07T04:37:17.987Z,6.38
2023-01-07T04:38:17.977Z,6.39
2023-01-07T04:39:18.004Z,6.38
2023-01-07T04:40:17.963Z,6.36
2023-01-07T04:41:17.953Z,6.33
2023-01-07T04:42:17.957Z,6.33
2023-01-07T04:43:17.920Z,6.35
2023-01-07T04:44:17.913Z,6.38
2023-01-07T04:45:17.920Z,6.38
2023-01-07T04:46:17.957Z,6.39
2023-01-07T04:47:17.880Z,6.39
2023-01-07T04:48:17.938Z,6.42
2023-01-07T04:49:17.884Z,6.42
2023-01-07T04:50:17.851Z,6.45
2023-01-07T04:51:17.927Z,6.45
2023-01-07T04:52:17.848Z,6.45
2023-01-07T04:53:17.831Z,6.45
2023-01-07T04:54:17.819Z,6.50
2023-01-07T04:55:17.810Z,6.53
2023-01-07T04:56:17.809Z,6.54
2023-01-07T04:57:17.778Z,6.51
2023-01-07T04:58:17.764Z,6.54
2023-01-07T04:59:17.763Z,6.54
2023-01-07T05:00:17.787Z,6.57
2023-01-07T05:01:17.832Z,6.55
2023-01-07T05:02:17.784Z,6.57
2023-01-07T05:03:17.719Z,6.58
2023-01-07T05:04:17.772Z,6.61
2023-01-07T05:05:17.719Z,6.63
2023-01-07T05:06:17.697Z,6.64
2023-01-07T05:07:17.698Z,6.68
2023-01-07T05:08:17.690Z,6.68
2023-01-07T05:09:17.654Z,6.71
2023-01-07T05:10:17.676Z,6.72
2023-01-07T05:11:17.651Z,6.72
2023-01-07T05:12:17.645Z,6.72
2023-01-07T05:13:18.269Z,6.72
2023-01-07T05:14:17.616Z,6.75
2023-01-07T05:15:17.616Z,6.78
2023-01-07T05:16:17.637Z,6.78
2023-01-07T05:17:23.636Z,6.79
2023-01-07T05:18:17.570Z,6.82
2023-01-07T05:19:17.556Z,6.83
2023-01-07T05:20:18.219Z,6.87
2023-01-07T05:21:17.535Z,6.89
2023-01-07T05:22:17.553Z,6.91
2023-01-07T05:23:17.530Z,6.91
2023-01-07T05:24:17.528Z,6.91
2023-01-07T05:25:17.554Z,6.91
2023-01-07T05:26:17.477Z,6.90
2023-01-07T05:27:17.592Z,6.91
2023-01-07T05:28:17.468Z,6.93
2023-01-07T05:29:17.474Z,6.94
2023-01-07T05:30:17.494Z,6.96
2023-01-07T05:31:17.488Z,6.96
2023-01-07T05:32:17.421Z,6.96
2023-01-07T05:33:17.439Z,6.99
2023-01-07T05:34:17.401Z,7.00
2023-01-07T05:35:17.415Z,7.00
2023-01-07T05:36:17.390Z,7.05
2023-01-07T05:37:17.371Z,7.04
2023-01-07T05:38:17.367Z,7.07
2023-01-07T05:39:17.365Z,7.09
2023-01-07T05:40:17.351Z,7.07
2023-01-07T05:41:17.362Z,7.11
2023-01-07T05:42:17.319Z,7.14
2023-01-07T05:43:17.311Z,7.14
2023-01-07T05:44:17.313Z,7.16
2023-01-07T05:45:17.317Z,7.14
2023-01-07T05:46:17.381Z,7.15
2023-01-07T05:47:17.268Z,7.16
2023-01-07T05:48:17.259Z,7.18
2023-01-07T05:49:17.289Z,7.18
2023-01-07T05:50:17.258Z,7.18
2023-01-07T05:51:17.250Z,7.21
2023-01-07T05:52:17.224Z,7.18
2023-01-07T05:53:17.213Z,7.24
2023-01-07T05:54:17.229Z,7.21
2023-01-07T05:55:17.200Z,7.27
2023-01-07T05:56:17.177Z,7.24
2023-01-07T05:57:17.206Z,7.26
2023-01-07T05:58:17.175Z,7.27
2023-01-07T05:59:17.171Z,7.29
2023-01-07T06:00:17.143Z,7.29
2023-01-07T06:01:17.290Z,7.30
2023-01-07T06:02:17.128Z,7.30
2023-01-07T06:03:17.173Z,7.33
2023-01-07T06:04:17.133Z,7.33
2023-01-07T06:05:17.116Z,7.32
2023-01-07T06:06:17.087Z,7.36
2023-01-07T06:07:17.129Z,7.34
2023-01-07T06:08:17.052Z,7.37
2023-01-07T06:09:17.079Z,7.39
2023-01-07T06:10:17.038Z,7.41
2023-01-07T06:11:17.034Z,7.41
2023-01-07T06:12:17.051Z,7.41
2023-01-07T06:13:17.021Z,7.42
2023-01-07T06:14:17.085Z,7.42
2023-01-07T06:15:16.982Z,7.42
2023-01-07T06:16:17.043Z,7.42
2023-01-07T06:17:17.023Z,7.45
2023-01-07T06:18:16.974Z,7.45
2023-01-07T06:19:16.964Z,7.47
2023-01-07T06:20:16.927Z,7.47
2023-01-07T06:21:16.947Z,7.48
2023-01-07T06:22:16.916Z,7.48
2023-01-07T06:23:16.916Z,7.47
2023-01-07T06:24:16.936Z,7.50
2023-01-07T06:25:16.899Z,7.48
2023-01-07T06:26:16.896Z,7.48
2023-01-07T06:27:16.891Z,7.50
2023-01-07T06:28:16.884Z,7.47
2023-01-07T06:29:16.862Z,7.48
2023-01-07T06:30:16.851Z,7.50
2023-01-07T06:31:16.893Z,7.48
2023-01-07T06:32:16.802Z,7.47
2023-01-07T06:33:16.826Z,7.47
2023-01-07T06:34:16.823Z,7.45
2023-01-07T06:35:16.790Z,7.42
2023-01-07T06:36:16.799Z,7.41
2023-01-07T06:37:16.769Z,7.44
2023-01-07T06:38:16.765Z,7.41
2023-01-07T06:39:16.747Z,7.37
2023-01-07T06:40:16.743Z,7.36
2023-01-07T06:41:16.722Z,7.37
2023-01-07T06:42:16.697Z,7.34
2023-01-07T06:43:16.676Z,7.33
2023-01-07T06:44:16.745Z,7.30
2023-01-07T06:45:16.690Z,7.29
2023-01-07T06:46:16.717Z,7.27
2023-01-07T06:47:16.654Z,7.24
2023-01-07T06:48:16.622Z,7.21
2023-01-07T06:49:16.595Z,7.18
2023-01-07T06:50:16.569Z,7.14
2023-01-07T06:51:16.603Z,7.12
2023-01-07T06:52:16.542Z,7.11
2023-01-07T06:53:16.606Z,7.08
2023-01-07T06:54:16.521Z,7.07
2023-01-07T06:55:16.543Z,7.09
2023-01-07T06:56:16.523Z,7.08
2023-01-07T06:57:16.518Z,7.07
2023-01-07T06:58:16.487Z,7.08
2023-01-07T06:59:16.514Z,7.07
2023-01-07T07:00:16.465Z,7.07
2023-01-07T07:01:16.570Z,7.09
2023-01-07T07:02:16.525Z,7.11
2023-01-07T07:03:16.528Z,7.12
2023-01-07T07:04:16.463Z,7.18
2023-01-07T07:05:16.417Z,7.16
2023-01-07T07:06:16.423Z,7.16
2023-01-07T07:07:16.444Z,7.18
2023-01-07T07:08:16.399Z,7.16
2023-01-07T07:09:16.391Z,7.21
2023-01-07T07:10:16.367Z,7.21
2023-01-07T07:11:16.382Z,7.18
2023-01-07T07:12:16.335Z,7.21
2023-01-07T07:13:16.395Z,7.18
2023-01-07T07:14:16.331Z,7.16
2023-01-07T07:15:16.337Z,7.14
2023-01-07T07:16:16.368Z,7.11
2023-01-07T07:17:16.300Z,7.12
2023-01-07T07:18:16.324Z,7.14
2023-01-07T07:19:16.301Z,7.14
2023-01-07T07:20:16.267Z,7.14
2023-01-07T07:21:16.287Z,7.12
2023-01-07T07:22:16.247Z,7.14
2023-01-07T07:23:16.272Z,7.14
2023-01-07T07:24:16.210Z,7.16
2023-01-07T07:25:16.242Z,7.14
2023-01-07T07:26:16.240Z,7.16
2023-01-07T07:27:16.220Z,7.16
2023-01-07T07:28:16.191Z,7.15
2023-01-07T07:29:16.204Z,7.19
2023-01-07T07:30:16.289Z,7.21
2023-01-07T07:31:16.262Z,7.23
2023-01-07T07:32:16.145Z,7.24
2023-01-07T07:33:16.165Z,7.24
2023-01-07T07:34:16.141Z,7.27
2023-01-07T07:35:16.262Z,7.27
2023-01-07T07:36:16.118Z,7.30
2023-01-07T07:37:16.133Z,7.32
2023-01-07T07:38:16.084Z,7.33
2023-01-07T07:39:16.119Z,7.36
2023-01-07T07:40:16.051Z,7.36
2023-01-07T07:41:16.073Z,7.36
2023-01-07T07:42:16.033Z,7.34
2023-01-07T07:43:16.176Z,7.39
2023-01-07T07:44:16.025Z,7.41
2023-01-07T07:45:16.018Z,7.42
2023-01-07T07:46:16.049Z,7.45
2023-01-07T07:47:15.996Z,7.47
2023-01-07T07:48:15.990Z,7.48
2023-01-07T07:49:15.963Z,7.48
2023-01-07T07:50:16.003Z,7.48
2023-01-07T07:51:15.963Z,7.48
2023-01-07T07:52:15.951Z,7.51
2023-01-07T07:53:15.938Z,7.51
2023-01-07T07:54:15.954Z,7.51
2023-01-07T07:55:20.120Z,7.50
2023-01-07T07:56:15.888Z,7.51
2023-01-07T07:57:15.917Z,7.51
2023-01-07T07:58:15.887Z,7.51
2023-01-07T07:59:15.864Z,7.50
2023-01-07T08:00:15.876Z,7.51
2023-01-07T08:01:15.933Z,7.47
2023-01-07T08:02:15.955Z,7.54
2023-01-07T08:03:15.919Z,7.51
2023-01-07T08:04:15.823Z,7.48
2023-01-07T08:05:15.827Z,7.52
2023-01-07T08:06:15.810Z,7.54
2023-01-07T08:07:15.777Z,7.51
2023-01-07T08:08:15.788Z,7.54
2023-01-07T08:09:15.761Z,7.54
2023-01-07T08:10:15.739Z,7.52
2023-01-07T08:11:15.733Z,7.54
2023-01-07T08:12:15.730Z,7.57
2023-01-07T08:13:15.751Z,7.57
2023-01-07T08:14:15.717Z,7.57
2023-01-07T08:15:15.700Z,7.60
2023-01-07T08:16:15.731Z,7.60
2023-01-07T08:17:15.724Z,7.62
2023-01-07T08:18:15.722Z,7.62
2023-01-07T08:19:15.669Z,7.63
2023-01-07T08:20:15.689Z,7.66
2023-01-07T08:21:15.632Z,7.66
2023-01-07T08:22:15.637Z,7.67
2023-01-07T08:23:15.699Z,7.67
2023-01-07T08:24:15.721Z,7.70
2023-01-07T08:25:15.606Z,7.71
2023-01-07T08:26:16.255Z,7.73
2023-01-07T08:27:15.581Z,7.73
2023-01-07T08:28:15.577Z,7.76
2023-01-07T08:29:15.551Z,7.77
2023-01-07T08:30:15.548Z,7.77
2023-01-07T08:31:15.562Z,7.79
2023-01-07T08:32:15.552Z,7.79
2023-01-07T08:33:15.597Z,7.79
2023-01-07T08:34:15.504Z,7.79
2023-01-07T08:35:15.507Z,7.81
2023-01-07T08:36:22.562Z,7.82
2023-01-07T08:37:15.466Z,7.81
2023-01-07T08:38:15.501Z,7.82
2023-01-07T08:39:15.459Z,7.84
2023-01-07T08:40:15.481Z,7.82
2023-01-07T08:41:15.430Z,7.85
2023-01-07T08:42:15.453Z,7.86
2023-01-07T08:43:15.428Z,7.92
2023-01-07T08:44:15.413Z,7.92
2023-01-07T08:45:15.389Z,7.96
2023-01-07T08:46:15.417Z,8.00
2023-01-07T08:47:15.420Z,8.03
2023-01-07T08:48:15.384Z,8.06
2023-01-07T08:49:15.362Z,8.07
2023-01-07T08:50:15.330Z,8.13
2023-01-07T08:51:15.384Z,8.14
2023-01-07T08:52:15.352Z,8.17
2023-01-07T08:53:15.344Z,8.20
2023-01-07T08:54:15.298Z,8.25
2023-01-07T08:55:15.285Z,8.31
2023-01-07T08:56:15.329Z,8.39
2023-01-07T08:57:15.265Z,8.45
2023-01-07T08:58:15.344Z,8.52
2023-01-07T08:59:15.286Z,8.52
2023-01-07T09:00:16.024Z,8.55
2023-01-07T09:01:15.370Z,8.57
2023-01-07T09:02:15.354Z,8.54
2023-01-07T09:03:15.222Z,8.52
2023-01-07T09:04:15.197Z,8.52
2023-01-07T09:05:15.182Z,8.54
2023-01-07T09:06:15.198Z,8.54
2023-01-07T09:07:15.191Z,8.52
2023-01-07T09:08:15.154Z,8.50
2023-01-07T09:09:15.147Z,8.46
2023-01-07T09:10:15.173Z,8.46
2023-01-07T09:11:15.110Z,8.47
2023-01-07T09:12:15.190Z,8.47
2023-01-07T09:13:15.103Z,8.47
2023-01-07T09:14:15.100Z,8.45
2023-01-07T09:15:15.109Z,8.46
2023-01-07T09:16:15.137Z,8.43
2023-01-07T09:17:15.061Z,8.45
2023-01-07T09:18:15.063Z,8.42
2023-01-07T09:19:15.039Z,8.42
2023-01-07T09:20:15.080Z,8.42
2023-01-07T09:21:15.025Z,8.45
2023-01-07T09:22:15.021Z,8.43
2023-01-07T09:23:15.031Z,8.47
2023-01-07T09:24:15.000Z,8.49
2023-01-07T09:25:14.970Z,8.49
2023-01-07T09:26:14.979Z,8.50
2023-01-07T09:27:14.995Z,8.54
2023-01-07T09:28:14.988Z,8.52
2023-01-07T09:29:14.951Z,8.50
2023-01-07T09:30:14.954Z,8.49
2023-01-07T09:31:14.921Z,8.47
2023-01-07T09:32:14.953Z,8.47
2023-01-07T09:33:14.905Z,8.47
2023-01-07T09:34:14.881Z,8.47
2023-01-07T09:35:14.890Z,8.47
2023-01-07T09:36:14.877Z,8.50
2023-01-07T09:37:14.881Z,8.54
2023-01-07T09:38:14.919Z,8.54
2023-01-07T09:39:14.833Z,8.55
2023-01-07T09:40:14.826Z,8.52
2023-01-07T09:41:14.811Z,8.54
2023-01-07T09:42:14.805Z,8.52
2023-01-07T09:43:14.799Z,8.55
2023-01-07T09:44:14.785Z,8.55
2023-01-07T09:45:14.783Z,8.55
2023-01-07T09:46:14.837Z,8.57
2023-01-07T09:47:14.760Z,8.58
2023-01-07T09:48:14.803Z,8.61
2023-01-07T09:49:14.714Z,8.63
2023-01-07T09:50:14.719Z,8.64
2023-01-07T09:51:14.724Z,8.64
2023-01-07T09:52:14.745Z,8.68
2023-01-07T09:53:14.700Z,8.65
2023-01-07T09:54:14.683Z,8.70
2023-01-07T09:55:14.718Z,8.71
2023-01-07T09:56:14.716Z,8.71
2023-01-07T09:57:14.658Z,8.73
2023-01-07T09:58:14.681Z,8.75
2023-01-07T09:59:14.741Z,8.78
2023-01-07T10:00:14.614Z,8.78
2023-01-07T10:01:14.630Z,8.79
2023-01-07T10:02:14.696Z,8.80
2023-01-07T10:03:14.583Z,8.83
2023-01-07T10:04:14.704Z,8.85
2023-01-07T10:05:14.556Z,8.86
2023-01-07T10:06:14.566Z,8.88
2023-01-07T10:07:14.562Z,8.89
2023-01-07T10:08:30.450Z,8.91
2023-01-07T10:09:15.371Z,8.88
2023-01-07T10:10:14.509Z,8.88
2023-01-07T10:11:14.530Z,8.88
2023-01-07T10:12:14.536Z,8.88
2023-01-07T10:13:14.486Z,8.83
2023-01-07T10:14:14.491Z,8.86
2023-01-07T10:15:14.449Z,8.88
2023-01-07T10:16:14.490Z,8.91
2023-01-07T10:17:14.446Z,8.93
2023-01-07T10:18:14.454Z,8.94
2023-01-07T10:19:14.416Z,8.97
2023-01-07T10:20:14.424Z,9.01
2023-01-07T10:21:14.416Z,9.04
2023-01-07T10:22:14.455Z,9.08
2023-01-07T10:23:14.370Z,9.06
2023-01-07T10:24:14.369Z,9.08
2023-01-07T10:25:14.491Z,9.12
2023-01-07T10:26:14.363Z,9.13
2023-01-07T10:27:14.339Z,9.08
2023-01-07T10:28:14.330Z,9.06
2023-01-07T10:29:14.309Z,9.10
2023-01-07T10:30:14.306Z,9.12
2023-01-07T10:31:14.325Z,9.13
2023-01-07T10:32:14.301Z,9.12
2023-01-07T10:33:14.264Z,9.12
2023-01-07T10:34:14.337Z,9.13
2023-01-07T10:35:14.260Z,9.13
2023-01-07T10:36:14.252Z,9.13
2023-01-07T10:37:14.235Z,9.15
2023-01-07T10:38:14.239Z,9.15
2023-01-07T10:39:14.241Z,9.17
2023-01-07T10:40:14.227Z,9.20
2023-01-07T10:41:14.205Z,9.19
2023-01-07T10:42:14.214Z,9.23
2023-01-07T10:43:14.182Z,9.26
2023-01-07T10:44:14.232Z,9.30
2023-01-07T10:45:14.144Z,9.32
2023-01-07T10:46:14.173Z,9.34
2023-01-07T10:47:14.167Z,9.38
2023-01-07T10:48:14.127Z,9.42
2023-01-07T10:49:14.138Z,9.45
2023-01-07T10:50:14.103Z,9.49
2023-01-07T10:51:14.113Z,9.55
2023-01-07T10:52:14.101Z,9.62
2023-01-07T10:53:14.070Z,9.68
2023-01-07T10:54:14.071Z,9.71
2023-01-07T10:55:14.046Z,9.75
2023-01-07T10:56:14.053Z,9.77
2023-01-07T10:57:14.092Z,9.86
2023-01-07T10:58:14.021Z,9.92
2023-01-07T10:59:15.070Z,9.96
2023-01-07T11:00:13.997Z,10.04
2023-01-07T11:01:14.144Z,10.07
2023-01-07T11:02:14.282Z,10.11
2023-01-07T11:03:14.002Z,10.17
2023-01-07T11:04:13.953Z,10.20
2023-01-07T11:05:14.949Z,10.16
2023-01-07T11:06:13.952Z,10.14
2023-01-07T11:07:13.923Z,10.14
2023-01-07T11:08:13.933Z,10.13
2023-01-07T11:09:13.901Z,10.09
2023-01-07T11:10:13.893Z,10.09
2023-01-07T11:11:13.939Z,10.09
2023-01-07T11:12:13.879Z,10.11
2023-01-07T11:13:13.865Z,10.10
2023-01-07T11:14:13.867Z,10.04
2023-01-07T11:15:13.839Z,10.02
2023-01-07T11:16:13.915Z,10.04
2023-01-07T11:17:13.822Z,10.04
2023-01-07T11:18:20.356Z,10.06
2023-01-07T11:19:13.793Z,10.01
2023-01-07T11:20:13.817Z,10.04
2023-01-07T11:21:44.073Z,10.02
2023-01-07T11:22:13.798Z,10.02
2023-01-07T11:23:13.749Z,10.04
2023-01-07T11:24:13.763Z,10.04
2023-01-07T11:25:13.727Z,10.10
2023-01-07T11:26:13.739Z,10.07
2023-01-07T11:27:13.723Z,10.14
2023-01-07T11:28:13.728Z,10.14
2023-01-07T11:29:13.816Z,10.16
2023-01-07T11:30:13.711Z,10.16
2023-01-07T11:31:13.708Z,10.11
2023-01-07T11:32:13.736Z,10.09
2023-01-07T11:33:13.645Z,10.10
2023-01-07T11:34:13.687Z,10.10
2023-01-07T11:35:13.622Z,10.10
2023-01-07T11:36:13.639Z,10.11
2023-01-07T11:37:13.604Z,10.11
2023-01-07T11:38:13.622Z,10.13
2023-01-07T11:39:13.584Z,10.13
2023-01-07T11:40:13.638Z,10.13
2023-01-07T11:41:13.581Z,10.13
2023-01-07T11:42:13.554Z,10.11
2023-01-07T11:43:13.545Z,10.14
2023-01-07T11:44:13.553Z,10.13
2023-01-07T11:45:13.563Z,10.14
2023-01-07T11:46:20.025Z,10.16
2023-01-07T11:47:13.504Z,10.14
2023-01-07T11:48:13.520Z,10.18
2023-01-07T11:49:13.633Z,10.22
2023-01-07T11:50:13.474Z,10.29
2023-01-07T11:51:13.492Z,10.28
2023-01-07T11:52:13.464Z,10.29
2023-01-07T11:53:13.487Z,10.29
2023-01-07T11:54:13.447Z,10.29
2023-01-07T11:55:13.477Z,10.29
2023-01-07T11:56:13.493Z,10.29
2023-01-07T11:57:13.405Z,10.29
2023-01-07T11:58:28.711Z,10.28
2023-01-07T11:59:13.382Z,10.29
2023-01-07T12:00:13.401Z,10.28
2023-01-07T12:01:13.475Z,10.31
2023-01-07T12:02:15.206Z,10.32
2023-01-07T12:03:13.378Z,10.35
2023-01-07T12:04:13.333Z,10.42
2023-01-07T12:05:13.340Z,10.43
2023-01-07T12:06:13.338Z,10.42
2023-01-07T12:07:13.305Z,10.47
2023-01-07T12:08:13.308Z,10.51
2023-01-07T12:09:13.293Z,10.62
2023-01-07T12:10:13.264Z,10.65
2023-01-07T12:11:13.313Z,10.75
2023-01-07T12:12:13.253Z,10.84
2023-01-07T12:13:13.231Z,10.86
2023-01-07T12:14:13.252Z,10.87
2023-01-07T12:15:13.232Z,10.91
2023-01-07T12:16:13.256Z,10.90
2023-01-07T12:17:13.194Z,10.93
2023-01-07T12:18:13.203Z,10.94
2023-01-07T12:19:13.177Z,10.99
2023-01-07T12:20:13.187Z,10.99
2023-01-07T12:21:13.142Z,10.95
2023-01-07T12:22:13.146Z,10.94
2023-01-07T12:23:13.190Z,10.87
2023-01-07T12:24:13.793Z,10.87
2023-01-07T12:25:13.131Z,10.84
2023-01-07T12:26:13.108Z,10.84
2023-01-07T12:27:13.091Z,10.83
2023-01-07T12:28:13.117Z,10.84
2023-01-07T12:29:13.123Z,10.81
2023-01-07T12:30:13.079Z,10.80
2023-01-07T12:31:13.308Z,10.83
2023-01-07T12:32:13.063Z,10.80
2023-01-07T12:33:13.048Z,10.81
2023-01-07T12:34:13.031Z,10.81
2023-01-07T12:35:15.152Z,10.78
2023-01-07T12:36:14.023Z,10.72
2023-01-07T12:37:13.059Z,10.69
2023-01-07T12:38:13.478Z,10.69
2023-01-07T12:39:12.985Z,10.63
2023-01-07T12:40:13.077Z,10.57
2023-01-07T12:41:12.964Z,10.58
2023-01-07T12:42:12.935Z,10.58
2023-01-07T12:43:12.975Z,10.57
2023-01-07T12:44:12.913Z,10.57
2023-01-07T12:45:13.029Z,10.58
2023-01-07T12:46:12.933Z,10.57
2023-01-07T12:47:31.120Z,10.47
2023-01-07T12:48:12.872Z,10.46
2023-01-07T12:49:12.870Z,10.44
2023-01-07T12:50:12.912Z,10.49
2023-01-07T12:51:12.895Z,10.51
2023-01-07T12:52:12.823Z,10.52
2023-01-07T12:53:12.826Z,10.55
2023-01-07T12:54:12.807Z,10.63
2023-01-07T12:55:12.850Z,10.65
2023-01-07T12:56:12.836Z,10.66
2023-01-07T12:57:12.816Z,10.69
2023-01-07T12:58:13.242Z,10.72
2023-01-07T12:59:47.224Z,10.72
2023-01-07T13:00:12.822Z,10.72
2023-01-07T13:01:12.853Z,10.72
2023-01-07T13:02:12.786Z,10.72
2023-01-07T13:03:12.727Z,10.72
2023-01-07T13:04:12.716Z,10.72
2023-01-07T13:05:12.718Z,10.70
2023-01-07T13:06:12.699Z,10.70
2023-01-07T13:07:12.689Z,10.68
2023-01-07T13:08:12.685Z,10.65
2023-01-07T13:09:12.655Z,10.63
2023-01-07T13:10:12.639Z,10.62
2023-01-07T13:11:12.673Z,10.65
2023-01-07T13:12:42.259Z,10.65
2023-01-07T13:13:14.155Z,10.66